sensor_id;sensor_type;location;lat;lon;timestamp;P1;durP1;ratioP1;P2;durP2;ratioP2
21903;SDS011;11116;51.554;7.812;2022-08-21T00:00:18;9.65;;;4.70;;
21903;SDS011;11116;51.554;7.812;2022-08-21T00:02:48;10.93;;;5.47;;
21903;SDS011;11116;51.554;7.812;2022-08-21T00:05:16;9.95;;;5.20;;
21903;SDS011;11116;51.554;7.812;2022-08-21T00:07:45;14.40;;;5.78;;
21903;SDS011;11116;51.554;7.812;2022-08-21T00:10:12;11.65;;;5.28;;
21903;SDS011;11116;51.554;7.812;2022-08-21T00:12:40;9.02;;;5.22;;
21903;SDS011;11116;51.554;7.812;2022-08-21T00:15:08;17.20;;;6.47;;
21903;SDS011;11116;51.554;7.812;2022-08-21T00:17:37;7.50;;;5.30;;
21903;SDS011;11116;51.554;7.812;2022-08-21T00:20:05;9.35;;;5.45;;
21903;SDS011;11116;51.554;7.812;2022-08-21T00:22:34;10.02;;;6.00;;
21903;SDS011;11116;51.554;7.812;2022-08-21T00:25:03;9.93;;;6.28;;
21903;SDS011;11116;51.554;7.812;2022-08-21T00:27:32;13.05;;;6.18;;
21903;SDS011;11116;51.554;7.812;2022-08-21T00:29:59;11.43;;;5.60;;
21903;SDS011;11116;51.554;7.812;2022-08-21T00:32:26;11.60;;;5.97;;
21903;SDS011;11116;51.554;7.812;2022-08-21T00:34:54;11.25;;;5.50;;
21903;SDS011;11116;51.554;7.812;2022-08-21T00:37:21;14.43;;;6.93;;
21903;SDS011;11116;51.554;7.812;2022-08-21T00:39:48;11.45;;;6.07;;
21903;SDS011;11116;51.554;7.812;2022-08-21T00:42:17;9.35;;;6.03;;
21903;SDS011;11116;51.554;7.812;2022-08-21T00:44:46;10.25;;;6.45;;
21903;SDS011;11116;51.554;7.812;2022-08-21T00:47:15;10.02;;;6.22;;
21903;SDS011;11116;51.554;7.812;2022-08-21T00:49:42;14.70;;;6.53;;
21903;SDS011;11116;51.554;7.812;2022-08-21T00:52:11;11.45;;;6.70;;
21903;SDS011;11116;51.554;7.812;2022-08-21T00:54:41;10.82;;;6.50;;
21903;SDS011;11116;51.554;7.812;2022-08-21T00:57:09;9.52;;;6.40;;
21903;SDS011;11116;51.554;7.812;2022-08-21T00:59:43;10.35;;;6.10;;
21903;SDS011;11116;51.554;7.812;2022-08-21T01:02:11;11.88;;;5.97;;
21903;SDS011;11116;51.554;7.812;2022-08-21T01:04:39;14.18;;;6.30;;
21903;SDS011;11116;51.554;7.812;2022-08-21T01:07:06;9.57;;;6.43;;
21903;SDS011;11116;51.554;7.812;2022-08-21T01:09:33;13.07;;;6.85;;
21903;SDS011;11116;51.554;7.812;2022-08-21T01:12:01;13.75;;;7.13;;
21903;SDS011;11116;51.554;7.812;2022-08-21T01:14:28;11.73;;;6.78;;
21903;SDS011;11116;51.554;7.812;2022-08-21T01:16:58;12.32;;;7.45;;
21903;SDS011;11116;51.554;7.812;2022-08-21T01:19:28;8.90;;;6.47;;
21903;SDS011;11116;51.554;7.812;2022-08-21T01:21:56;12.68;;;6.78;;
21903;SDS011;11116;51.554;7.812;2022-08-21T01:24:25;14.45;;;6.53;;
21903;SDS011;11116;51.554;7.812;2022-08-21T01:26:52;11.63;;;6.80;;
21903;SDS011;11116;51.554;7.812;2022-08-21T01:29:22;14.20;;;6.80;;
21903;SDS011;11116;51.554;7.812;2022-08-21T01:31:55;10.68;;;5.88;;
21903;SDS011;11116;51.554;7.812;2022-08-21T01:34:22;11.73;;;5.68;;
21903;SDS011;11116;51.554;7.812;2022-08-21T01:36:49;8.25;;;6.35;;
21903;SDS011;11116;51.554;7.812;2022-08-21T01:39:18;12.85;;;7.10;;
21903;SDS011;11116;51.554;7.812;2022-08-21T01:41:45;10.40;;;5.43;;
21903;SDS011;11116;51.554;7.812;2022-08-21T01:44:12;11.73;;;6.43;;
21903;SDS011;11116;51.554;7.812;2022-08-21T01:46:39;10.95;;;5.70;;
21903;SDS011;11116;51.554;7.812;2022-08-21T01:49:06;8.70;;;6.03;;
21903;SDS011;11116;51.554;7.812;2022-08-21T01:51:34;9.00;;;6.15;;
21903;SDS011;11116;51.554;7.812;2022-08-21T01:54:01;11.30;;;6.00;;
21903;SDS011;11116;51.554;7.812;2022-08-21T01:56:31;11.93;;;6.65;;
21903;SDS011;11116;51.554;7.812;2022-08-21T01:59:03;8.20;;;6.18;;
21903;SDS011;11116;51.554;7.812;2022-08-21T02:01:31;12.27;;;7.05;;
21903;SDS011;11116;51.554;7.812;2022-08-21T02:03:58;12.60;;;5.55;;
21903;SDS011;11116;51.554;7.812;2022-08-21T02:06:25;10.27;;;5.32;;
21903;SDS011;11116;51.554;7.812;2022-08-21T02:08:53;11.75;;;6.97;;
21903;SDS011;11116;51.554;7.812;2022-08-21T02:11:20;8.20;;;6.32;;
21903;SDS011;11116;51.554;7.812;2022-08-21T02:13:48;9.25;;;6.07;;
21903;SDS011;11116;51.554;7.812;2022-08-21T02:16:15;10.13;;;6.63;;
21903;SDS011;11116;51.554;7.812;2022-08-21T02:18:42;11.35;;;7.35;;
21903;SDS011;11116;51.554;7.812;2022-08-21T02:21:09;11.63;;;6.65;;
21903;SDS011;11116;51.554;7.812;2022-08-21T02:23:36;12.13;;;6.85;;
21903;SDS011;11116;51.554;7.812;2022-08-21T02:26:04;10.30;;;6.90;;
21903;SDS011;11116;51.554;7.812;2022-08-21T02:28:33;14.07;;;7.65;;
21903;SDS011;11116;51.554;7.812;2022-08-21T02:31:02;12.77;;;6.88;;
21903;SDS011;11116;51.554;7.812;2022-08-21T02:33:30;18.40;;;7.05;;
21903;SDS011;11116;51.554;7.812;2022-08-21T02:35:58;9.18;;;6.95;;
21903;SDS011;11116;51.554;7.812;2022-08-21T02:38:27;11.70;;;6.68;;
21903;SDS011;11116;51.554;7.812;2022-08-21T02:40:56;12.10;;;6.88;;
21903;SDS011;11116;51.554;7.812;2022-08-21T02:43:25;13.23;;;6.50;;
21903;SDS011;11116;51.554;7.812;2022-08-21T02:45:53;12.77;;;7.18;;
21903;SDS011;11116;51.554;7.812;2022-08-21T02:48:23;18.65;;;8.07;;
21903;SDS011;11116;51.554;7.812;2022-08-21T02:50:53;9.40;;;6.75;;
21903;SDS011;11116;51.554;7.812;2022-08-21T02:53:22;13.90;;;6.80;;
21903;SDS011;11116;51.554;7.812;2022-08-21T02:55:50;12.02;;;7.80;;
21903;SDS011;11116;51.554;7.812;2022-08-21T02:58:20;11.35;;;6.82;;
21903;SDS011;11116;51.554;7.812;2022-08-21T03:00:49;12.73;;;6.60;;
21903;SDS011;11116;51.554;7.812;2022-08-21T03:03:17;11.00;;;8.25;;
21903;SDS011;11116;51.554;7.812;2022-08-21T03:05:47;13.27;;;8.05;;
21903;SDS011;11116;51.554;7.812;2022-08-21T03:08:14;16.33;;;7.75;;
21903;SDS011;11116;51.554;7.812;2022-08-21T03:10:49;15.38;;;8.05;;
21903;SDS011;11116;51.554;7.812;2022-08-21T03:13:18;17.75;;;8.35;;
21903;SDS011;11116;51.554;7.812;2022-08-21T03:15:46;11.85;;;8.00;;
21903;SDS011;11116;51.554;7.812;2022-08-21T03:18:15;16.42;;;7.50;;
21903;SDS011;11116;51.554;7.812;2022-08-21T03:20:42;11.93;;;7.20;;
21903;SDS011;11116;51.554;7.812;2022-08-21T03:23:12;9.13;;;7.45;;
21903;SDS011;11116;51.554;7.812;2022-08-21T03:25:41;19.98;;;9.27;;
21903;SDS011;11116;51.554;7.812;2022-08-21T03:28:08;9.95;;;7.22;;
21903;SDS011;11116;51.554;7.812;2022-08-21T03:30:36;14.65;;;7.78;;
21903;SDS011;11116;51.554;7.812;2022-08-21T03:33:03;10.57;;;8.07;;
21903;SDS011;11116;51.554;7.812;2022-08-21T03:35:30;9.60;;;7.35;;
21903;SDS011;11116;51.554;7.812;2022-08-21T03:37:57;12.88;;;7.88;;
21903;SDS011;11116;51.554;7.812;2022-08-21T03:40:26;10.70;;;7.30;;
21903;SDS011;11116;51.554;7.812;2022-08-21T03:42:53;17.60;;;7.90;;
21903;SDS011;11116;51.554;7.812;2022-08-21T03:45:20;17.58;;;7.97;;
21903;SDS011;11116;51.554;7.812;2022-08-21T03:47:55;18.90;;;8.63;;
21903;SDS011;11116;51.554;7.812;2022-08-21T03:50:23;9.95;;;7.68;;
21903;SDS011;11116;51.554;7.812;2022-08-21T03:52:51;15.85;;;7.95;;
21903;SDS011;11116;51.554;7.812;2022-08-21T03:55:18;16.85;;;8.38;;
21903;SDS011;11116;51.554;7.812;2022-08-21T03:57:47;15.63;;;8.68;;
21903;SDS011;11116;51.554;7.812;2022-08-21T04:00:14;10.23;;;7.38;;
21903;SDS011;11116;51.554;7.812;2022-08-21T04:02:43;10.88;;;6.97;;
21903;SDS011;11116;51.554;7.812;2022-08-21T04:05:10;10.82;;;6.43;;
21903;SDS011;11116;51.554;7.812;2022-08-21T04:07:38;10.75;;;6.90;;
21903;SDS011;11116;51.554;7.812;2022-08-21T04:10:07;13.07;;;7.65;;
21903;SDS011;11116;51.554;7.812;2022-08-21T04:12:34;11.77;;;6.80;;
21903;SDS011;11116;51.554;7.812;2022-08-21T04:15:03;9.95;;;7.13;;
21903;SDS011;11116;51.554;7.812;2022-08-21T04:17:30;11.27;;;7.20;;
21903;SDS011;11116;51.554;7.812;2022-08-21T04:19:58;9.45;;;7.53;;
21903;SDS011;11116;51.554;7.812;2022-08-21T04:22:25;9.40;;;7.53;;
21903;SDS011;11116;51.554;7.812;2022-08-21T04:24:52;11.13;;;8.18;;
21903;SDS011;11116;51.554;7.812;2022-08-21T04:27:19;10.68;;;8.27;;
21903;SDS011;11116;51.554;7.812;2022-08-21T04:29:46;11.50;;;7.68;;
21903;SDS011;11116;51.554;7.812;2022-08-21T04:32:14;9.07;;;7.97;;
21903;SDS011;11116;51.554;7.812;2022-08-21T04:34:48;12.02;;;8.50;;
21903;SDS011;11116;51.554;7.812;2022-08-21T04:37:15;11.57;;;7.93;;
21903;SDS011;11116;51.554;7.812;2022-08-21T04:39:42;9.15;;;7.38;;
21903;SDS011;11116;51.554;7.812;2022-08-21T04:42:09;13.82;;;8.35;;
21903;SDS011;11116;51.554;7.812;2022-08-21T04:44:36;12.80;;;8.30;;
21903;SDS011;11116;51.554;7.812;2022-08-21T04:47:03;10.27;;;8.68;;
21903;SDS011;11116;51.554;7.812;2022-08-21T04:49:32;13.77;;;8.77;;
21903;SDS011;11116;51.554;7.812;2022-08-21T04:51:59;13.90;;;8.45;;
21903;SDS011;11116;51.554;7.812;2022-08-21T04:54:27;14.82;;;8.15;;
21903;SDS011;11116;51.554;7.812;2022-08-21T04:56:56;10.68;;;8.50;;
21903;SDS011;11116;51.554;7.812;2022-08-21T04:59:30;16.38;;;8.82;;
21903;SDS011;11116;51.554;7.812;2022-08-21T05:02:02;9.05;;;7.80;;
21903;SDS011;11116;51.554;7.812;2022-08-21T05:04:30;12.98;;;8.77;;
21903;SDS011;11116;51.554;7.812;2022-08-21T05:07:03;11.75;;;8.73;;
21903;SDS011;11116;51.554;7.812;2022-08-21T05:09:33;17.20;;;10.07;;
21903;SDS011;11116;51.554;7.812;2022-08-21T05:12:01;13.70;;;10.25;;
21903;SDS011;11116;51.554;7.812;2022-08-21T05:14:29;10.25;;;9.02;;
21903;SDS011;11116;51.554;7.812;2022-08-21T05:16:56;18.40;;;9.52;;
21903;SDS011;11116;51.554;7.812;2022-08-21T05:19:24;9.98;;;8.85;;
21903;SDS011;11116;51.554;7.812;2022-08-21T05:21:53;13.18;;;8.05;;
21903;SDS011;11116;51.554;7.812;2022-08-21T05:24:20;10.40;;;8.10;;
21903;SDS011;11116;51.554;7.812;2022-08-21T05:26:47;13.98;;;8.75;;
21903;SDS011;11116;51.554;7.812;2022-08-21T05:29:14;16.45;;;9.07;;
21903;SDS011;11116;51.554;7.812;2022-08-21T05:31:42;12.73;;;8.35;;
21903;SDS011;11116;51.554;7.812;2022-08-21T05:34:10;13.63;;;9.13;;
21903;SDS011;11116;51.554;7.812;2022-08-21T05:36:37;14.73;;;9.75;;
21903;SDS011;11116;51.554;7.812;2022-08-21T05:39:05;11.52;;;9.63;;
21903;SDS011;11116;51.554;7.812;2022-08-21T05:41:32;18.40;;;10.55;;
21903;SDS011;11116;51.554;7.812;2022-08-21T05:43:59;11.93;;;9.88;;
21903;SDS011;11116;51.554;7.812;2022-08-21T05:46:26;17.67;;;10.85;;
21903;SDS011;11116;51.554;7.812;2022-08-21T05:48:53;14.65;;;10.20;;
21903;SDS011;11116;51.554;7.812;2022-08-21T05:51:20;13.98;;;9.80;;
21903;SDS011;11116;51.554;7.812;2022-08-21T05:53:47;12.27;;;8.52;;
21903;SDS011;11116;51.554;7.812;2022-08-21T05:56:15;14.75;;;9.13;;
21903;SDS011;11116;51.554;7.812;2022-08-21T05:58:42;15.27;;;9.65;;
21903;SDS011;11116;51.554;7.812;2022-08-21T06:01:09;10.27;;;7.43;;
21903;SDS011;11116;51.554;7.812;2022-08-21T06:03:37;11.32;;;7.78;;
21903;SDS011;11116;51.554;7.812;2022-08-21T06:06:06;14.77;;;9.38;;
21903;SDS011;11116;51.554;7.812;2022-08-21T06:08:33;18.15;;;8.95;;
21903;SDS011;11116;51.554;7.812;2022-08-21T06:11:00;10.52;;;7.22;;
21903;SDS011;11116;51.554;7.812;2022-08-21T06:13:30;12.38;;;7.47;;
21903;SDS011;11116;51.554;7.812;2022-08-21T06:16:01;11.07;;;7.35;;
21903;SDS011;11116;51.554;7.812;2022-08-21T06:18:30;10.32;;;7.43;;
21903;SDS011;11116;51.554;7.812;2022-08-21T06:20:57;12.65;;;8.25;;
21903;SDS011;11116;51.554;7.812;2022-08-21T06:23:24;17.63;;;8.13;;
21903;SDS011;11116;51.554;7.812;2022-08-21T06:25:51;14.38;;;8.25;;
21903;SDS011;11116;51.554;7.812;2022-08-21T06:28:18;12.90;;;8.00;;
21903;SDS011;11116;51.554;7.812;2022-08-21T06:30:46;10.73;;;7.90;;
21903;SDS011;11116;51.554;7.812;2022-08-21T06:33:13;10.85;;;6.60;;
21903;SDS011;11116;51.554;7.812;2022-08-21T06:35:40;10.27;;;7.28;;
21903;SDS011;11116;51.554;7.812;2022-08-21T06:38:07;12.77;;;7.18;;
21903;SDS011;11116;51.554;7.812;2022-08-21T06:40:34;11.13;;;6.40;;
21903;SDS011;11116;51.554;7.812;2022-08-21T06:43:05;11.35;;;5.65;;
21903;SDS011;11116;51.554;7.812;2022-08-21T06:45:35;10.25;;;5.88;;
21903;SDS011;11116;51.554;7.812;2022-08-21T06:48:03;10.38;;;5.50;;
21903;SDS011;11116;51.554;7.812;2022-08-21T06:50:32;10.35;;;5.82;;
21903;SDS011;11116;51.554;7.812;2022-08-21T06:53:01;8.25;;;5.20;;
21903;SDS011;11116;51.554;7.812;2022-08-21T06:55:29;12.52;;;5.40;;
21903;SDS011;11116;51.554;7.812;2022-08-21T06:57:57;7.88;;;4.47;;
21903;SDS011;11116;51.554;7.812;2022-08-21T07:00:24;10.00;;;4.63;;
21903;SDS011;11116;51.554;7.812;2022-08-21T07:02:51;8.95;;;4.05;;
21903;SDS011;11116;51.554;7.812;2022-08-21T07:05:20;8.35;;;4.82;;
21903;SDS011;11116;51.554;7.812;2022-08-21T07:07:47;9.50;;;5.18;;
21903;SDS011;11116;51.554;7.812;2022-08-21T07:10:14;8.75;;;4.18;;
21903;SDS011;11116;51.554;7.812;2022-08-21T07:12:41;14.68;;;5.32;;
21903;SDS011;11116;51.554;7.812;2022-08-21T07:15:09;10.32;;;4.90;;
21903;SDS011;11116;51.554;7.812;2022-08-21T07:17:36;9.20;;;4.93;;
21903;SDS011;11116;51.554;7.812;2022-08-21T07:20:04;9.02;;;4.82;;
21903;SDS011;11116;51.554;7.812;2022-08-21T07:22:33;10.32;;;4.68;;
21903;SDS011;11116;51.554;7.812;2022-08-21T07:25:03;8.73;;;5.07;;
21903;SDS011;11116;51.554;7.812;2022-08-21T07:27:30;6.18;;;3.83;;
21903;SDS011;11116;51.554;7.812;2022-08-21T07:29:57;7.50;;;4.57;;
21903;SDS011;11116;51.554;7.812;2022-08-21T07:32:24;10.68;;;4.53;;
21903;SDS011;11116;51.554;7.812;2022-08-21T07:34:51;8.60;;;4.00;;
21903;SDS011;11116;51.554;7.812;2022-08-21T07:37:18;5.60;;;3.60;;
21903;SDS011;11116;51.554;7.812;2022-08-21T07:39:46;7.25;;;3.85;;
21903;SDS011;11116;51.554;7.812;2022-08-21T07:42:14;6.93;;;3.78;;
21903;SDS011;11116;51.554;7.812;2022-08-21T07:44:42;6.70;;;3.47;;
21903;SDS011;11116;51.554;7.812;2022-08-21T07:47:09;7.43;;;3.65;;
21903;SDS011;11116;51.554;7.812;2022-08-21T07:49:36;11.32;;;4.05;;
21903;SDS011;11116;51.554;7.812;2022-08-21T07:52:03;8.23;;;3.38;;
21903;SDS011;11116;51.554;7.812;2022-08-21T07:54:30;7.68;;;2.80;;
21903;SDS011;11116;51.554;7.812;2022-08-21T07:56:58;12.95;;;4.07;;
21903;SDS011;11116;51.554;7.812;2022-08-21T07:59:25;10.27;;;3.67;;
21903;SDS011;11116;51.554;7.812;2022-08-21T08:01:52;7.47;;;3.35;;
21903;SDS011;11116;51.554;7.812;2022-08-21T08:04:19;11.80;;;4.28;;
21903;SDS011;11116;51.554;7.812;2022-08-21T08:06:46;7.15;;;3.33;;
21903;SDS011;11116;51.554;7.812;2022-08-21T08:09:13;7.90;;;3.45;;
21903;SDS011;11116;51.554;7.812;2022-08-21T08:11:41;10.45;;;3.85;;
21903;SDS011;11116;51.554;7.812;2022-08-21T08:14:10;8.35;;;4.07;;
21903;SDS011;11116;51.554;7.812;2022-08-21T08:16:37;9.00;;;3.63;;
21903;SDS011;11116;51.554;7.812;2022-08-21T08:19:04;11.43;;;4.35;;
21903;SDS011;11116;51.554;7.812;2022-08-21T08:21:31;8.60;;;4.38;;
21903;SDS011;11116;51.554;7.812;2022-08-21T08:23:59;10.77;;;4.43;;
21903;SDS011;11116;51.554;7.812;2022-08-21T08:26:26;14.05;;;4.30;;
21903;SDS011;11116;51.554;7.812;2022-08-21T08:28:53;7.15;;;3.58;;
21903;SDS011;11116;51.554;7.812;2022-08-21T08:31:21;6.78;;;3.33;;
21903;SDS011;11116;51.554;7.812;2022-08-21T08:33:49;9.82;;;3.97;;
21903;SDS011;11116;51.554;7.812;2022-08-21T08:36:16;7.78;;;3.90;;
21903;SDS011;11116;51.554;7.812;2022-08-21T08:38:44;8.45;;;4.38;;
21903;SDS011;11116;51.554;7.812;2022-08-21T08:41:13;7.03;;;3.90;;
21903;SDS011;11116;51.554;7.812;2022-08-21T08:43:44;10.20;;;3.40;;
21903;SDS011;11116;51.554;7.812;2022-08-21T08:46:18;10.13;;;3.55;;
21903;SDS011;11116;51.554;7.812;2022-08-21T08:48:54;7.43;;;3.25;;
21903;SDS011;11116;51.554;7.812;2022-08-21T08:51:29;6.68;;;3.28;;
21903;SDS011;11116;51.554;7.812;2022-08-21T08:54:06;5.38;;;2.97;;
21903;SDS011;11116;51.554;7.812;2022-08-21T08:56:37;48.05;;;28.27;;
21903;SDS011;11116;51.554;7.812;2022-08-21T08:59:07;11.40;;;4.25;;
21903;SDS011;11116;51.554;7.812;2022-08-21T09:01:40;9.02;;;3.38;;
21903;SDS011;11116;51.554;7.812;2022-08-21T09:04:08;13.15;;;4.65;;
21903;SDS011;11116;51.554;7.812;2022-08-21T09:06:42;10.77;;;3.38;;
21903;SDS011;11116;51.554;7.812;2022-08-21T09:09:19;7.85;;;2.50;;
21903;SDS011;11116;51.554;7.812;2022-08-21T09:11:57;13.68;;;3.45;;
21903;SDS011;11116;51.554;7.812;2022-08-21T09:14:31;12.38;;;2.22;;
21903;SDS011;11116;51.554;7.812;2022-08-21T09:17:11;5.68;;;2.25;;
21903;SDS011;11116;51.554;7.812;2022-08-21T09:19:53;3.50;;;1.75;;
21903;SDS011;11116;51.554;7.812;2022-08-21T09:22:32;7.47;;;2.22;;
21903;SDS011;11116;51.554;7.812;2022-08-21T09:25:08;7.90;;;2.42;;
21903;SDS011;11116;51.554;7.812;2022-08-21T09:27:38;8.55;;;2.70;;
21903;SDS011;11116;51.554;7.812;2022-08-21T09:30:06;8.43;;;2.97;;
21903;SDS011;11116;51.554;7.812;2022-08-21T09:32:34;6.43;;;2.47;;
21903;SDS011;11116;51.554;7.812;2022-08-21T09:35:05;11.25;;;2.55;;
21903;SDS011;11116;51.554;7.812;2022-08-21T09:37:35;5.88;;;2.28;;
21903;SDS011;11116;51.554;7.812;2022-08-21T09:40:18;5.78;;;2.83;;
21903;SDS011;11116;51.554;7.812;2022-08-21T09:42:53;10.75;;;3.00;;
21903;SDS011;11116;51.554;7.812;2022-08-21T09:45:21;8.85;;;2.97;;
21903;SDS011;11116;51.554;7.812;2022-08-21T09:47:48;7.32;;;2.63;;
21903;SDS011;11116;51.554;7.812;2022-08-21T09:50:17;9.70;;;2.80;;
21903;SDS011;11116;51.554;7.812;2022-08-21T09:52:47;6.65;;;2.97;;
21903;SDS011;11116;51.554;7.812;2022-08-21T09:55:16;10.38;;;2.92;;
21903;SDS011;11116;51.554;7.812;2022-08-21T09:58:04;7.43;;;2.78;;
21903;SDS011;11116;51.554;7.812;2022-08-21T10:00:32;6.65;;;3.08;;
21903;SDS011;11116;51.554;7.812;2022-08-21T10:03:12;6.05;;;2.95;;
21903;SDS011;11116;51.554;7.812;2022-08-21T10:05:51;6.15;;;3.28;;
21903;SDS011;11116;51.554;7.812;2022-08-21T10:08:21;6.00;;;2.83;;
21903;SDS011;11116;51.554;7.812;2022-08-21T10:10:50;7.18;;;3.13;;
21903;SDS011;11116;51.554;7.812;2022-08-21T10:13:21;9.60;;;3.22;;
21903;SDS011;11116;51.554;7.812;2022-08-21T10:15:57;6.35;;;2.47;;
21903;SDS011;11116;51.554;7.812;2022-08-21T10:18:40;5.65;;;2.30;;
21903;SDS011;11116;51.554;7.812;2022-08-21T10:21:13;10.43;;;2.63;;
21903;SDS011;11116;51.554;7.812;2022-08-21T10:23:51;8.25;;;2.60;;
21903;SDS011;11116;51.554;7.812;2022-08-21T10:26:34;5.40;;;2.10;;
21903;SDS011;11116;51.554;7.812;2022-08-21T10:29:11;10.02;;;2.67;;
21903;SDS011;11116;51.554;7.812;2022-08-21T10:31:49;8.95;;;2.85;;
21903;SDS011;11116;51.554;7.812;2022-08-21T10:34:26;5.40;;;2.28;;
21903;SDS011;11116;51.554;7.812;2022-08-21T10:37:15;8.75;;;2.65;;
21903;SDS011;11116;51.554;7.812;2022-08-21T10:39:56;5.38;;;2.22;;
21903;SDS011;11116;51.554;7.812;2022-08-21T10:42:35;8.95;;;2.53;;
21903;SDS011;11116;51.554;7.812;2022-08-21T10:45:09;5.35;;;1.90;;
21903;SDS011;11116;51.554;7.812;2022-08-21T10:47:42;4.68;;;2.42;;
21903;SDS011;11116;51.554;7.812;2022-08-21T10:50:17;6.03;;;2.50;;
21903;SDS011;11116;51.554;7.812;2022-08-21T10:52:56;5.93;;;2.03;;
21903;SDS011;11116;51.554;7.812;2022-08-21T10:55:32;4.97;;;2.28;;
21903;SDS011;11116;51.554;7.812;2022-08-21T10:58:04;7.90;;;1.98;;
21903;SDS011;11116;51.554;7.812;2022-08-21T11:00:39;4.15;;;2.28;;
21903;SDS011;11116;51.554;7.812;2022-08-21T11:03:11;4.93;;;1.55;;
21903;SDS011;11116;51.554;7.812;2022-08-21T11:05:41;5.47;;;2.08;;
21903;SDS011;11116;51.554;7.812;2022-08-21T11:08:17;4.97;;;2.08;;
21903;SDS011;11116;51.554;7.812;2022-08-21T11:10:49;6.38;;;2.10;;
21903;SDS011;11116;51.554;7.812;2022-08-21T11:13:19;3.80;;;1.60;;
21903;SDS011;11116;51.554;7.812;2022-08-21T11:15:52;4.35;;;2.05;;
21903;SDS011;11116;51.554;7.812;2022-08-21T11:18:26;10.55;;;2.50;;
21903;SDS011;11116;51.554;7.812;2022-08-21T11:21:01;4.00;;;1.48;;
21903;SDS011;11116;51.554;7.812;2022-08-21T11:23:36;4.63;;;1.83;;
21903;SDS011;11116;51.554;7.812;2022-08-21T11:26:08;4.50;;;1.80;;
21903;SDS011;11116;51.554;7.812;2022-08-21T11:28:42;4.97;;;2.10;;
21903;SDS011;11116;51.554;7.812;2022-08-21T11:31:21;5.72;;;2.13;;
21903;SDS011;11116;51.554;7.812;2022-08-21T11:34:03;6.50;;;1.85;;
21903;SDS011;11116;51.554;7.812;2022-08-21T11:36:38;8.85;;;2.10;;
21903;SDS011;11116;51.554;7.812;2022-08-21T11:39:15;4.68;;;1.45;;
21903;SDS011;11116;51.554;7.812;2022-08-21T11:41:51;6.35;;;1.88;;
21903;SDS011;11116;51.554;7.812;2022-08-21T11:44:29;3.72;;;1.52;;
21903;SDS011;11116;51.554;7.812;2022-08-21T11:47:09;5.38;;;1.80;;
21903;SDS011;11116;51.554;7.812;2022-08-21T11:49:43;2.20;;;1.40;;
21903;SDS011;11116;51.554;7.812;2022-08-21T11:52:20;4.60;;;1.65;;
21903;SDS011;11116;51.554;7.812;2022-08-21T11:54:58;3.13;;;1.25;;
21903;SDS011;11116;51.554;7.812;2022-08-21T11:57:31;7.07;;;1.70;;
21903;SDS011;11116;51.554;7.812;2022-08-21T12:00:03;4.65;;;2.10;;
21903;SDS011;11116;51.554;7.812;2022-08-21T12:02:50;8.50;;;1.80;;
21903;SDS011;11116;51.554;7.812;2022-08-21T12:05:23;2.80;;;1.35;;
21903;SDS011;11116;51.554;7.812;2022-08-21T12:08:04;3.33;;;1.65;;
21903;SDS011;11116;51.554;7.812;2022-08-21T12:10:38;3.90;;;1.70;;
21903;SDS011;11116;51.554;7.812;2022-08-21T12:13:07;5.22;;;1.80;;
21903;SDS011;11116;51.554;7.812;2022-08-21T12:15:37;5.72;;;1.65;;
21903;SDS011;11116;51.554;7.812;2022-08-21T12:18:05;5.53;;;1.60;;
21903;SDS011;11116;51.554;7.812;2022-08-21T12:20:36;4.45;;;1.60;;
21903;SDS011;11116;51.554;7.812;2022-08-21T12:23:15;2.65;;;1.38;;
21903;SDS011;11116;51.554;7.812;2022-08-21T12:25:47;4.10;;;1.40;;
21903;SDS011;11116;51.554;7.812;2022-08-21T12:28:26;4.07;;;1.67;;
21903;SDS011;11116;51.554;7.812;2022-08-21T12:30:55;4.43;;;1.48;;
21903;SDS011;11116;51.554;7.812;2022-08-21T12:33:24;2.30;;;1.40;;
21903;SDS011;11116;51.554;7.812;2022-08-21T12:36:01;1.90;;;1.15;;
21903;SDS011;11116;51.554;7.812;2022-08-21T12:38:32;3.00;;;1.17;;
21903;SDS011;11116;51.554;7.812;2022-08-21T12:41:12;4.45;;;1.38;;
21903;SDS011;11116;51.554;7.812;2022-08-21T12:43:45;2.65;;;1.10;;
21903;SDS011;11116;51.554;7.812;2022-08-21T12:46:17;2.33;;;1.20;;
21903;SDS011;11116;51.554;7.812;2022-08-21T12:48:47;3.70;;;1.33;;
21903;SDS011;11116;51.554;7.812;2022-08-21T12:51:18;4.22;;;1.30;;
21903;SDS011;11116;51.554;7.812;2022-08-21T12:53:51;5.45;;;1.25;;
21903;SDS011;11116;51.554;7.812;2022-08-21T12:56:21;4.32;;;1.25;;
21903;SDS011;11116;51.554;7.812;2022-08-21T12:58:51;2.72;;;1.15;;
21903;SDS011;11116;51.554;7.812;2022-08-21T13:01:22;2.40;;;1.17;;
21903;SDS011;11116;51.554;7.812;2022-08-21T13:03:52;4.80;;;1.73;;
21903;SDS011;11116;51.554;7.812;2022-08-21T13:06:22;4.38;;;1.40;;
21903;SDS011;11116;51.554;7.812;2022-08-21T13:08:52;3.53;;;1.45;;
21903;SDS011;11116;51.554;7.812;2022-08-21T13:11:26;5.25;;;1.38;;
21903;SDS011;11116;51.554;7.812;2022-08-21T13:13:53;2.78;;;1.50;;
21903;SDS011;11116;51.554;7.812;2022-08-21T13:16:22;3.38;;;1.30;;
21903;SDS011;11116;51.554;7.812;2022-08-21T13:18:53;5.43;;;1.30;;
21903;SDS011;11116;51.554;7.812;2022-08-21T13:21:26;2.70;;;1.38;;
21903;SDS011;11116;51.554;7.812;2022-08-21T13:24:13;2.97;;;1.08;;
21903;SDS011;11116;51.554;7.812;2022-08-21T13:26:44;2.65;;;1.38;;
21903;SDS011;11116;51.554;7.812;2022-08-21T13:29:12;2.25;;;1.00;;
21903;SDS011;11116;51.554;7.812;2022-08-21T13:31:48;1.20;;;1.00;;
21903;SDS011;11116;51.554;7.812;2022-08-21T13:34:18;3.85;;;1.23;;
21903;SDS011;11116;51.554;7.812;2022-08-21T13:36:47;2.97;;;1.33;;
21903;SDS011;11116;51.554;7.812;2022-08-21T13:39:18;2.88;;;1.10;;
21903;SDS011;11116;51.554;7.812;2022-08-21T13:41:49;3.75;;;1.20;;
21903;SDS011;11116;51.554;7.812;2022-08-21T13:44:19;4.60;;;1.20;;
21903;SDS011;11116;51.554;7.812;2022-08-21T13:46:51;1.58;;;1.05;;
21903;SDS011;11116;51.554;7.812;2022-08-21T13:49:21;2.75;;;0.90;;
21903;SDS011;11116;51.554;7.812;2022-08-21T13:51:53;4.28;;;1.02;;
21903;SDS011;11116;51.554;7.812;2022-08-21T13:54:21;2.05;;;1.00;;
21903;SDS011;11116;51.554;7.812;2022-08-21T13:56:52;1.92;;;1.02;;
21903;SDS011;11116;51.554;7.812;2022-08-21T13:59:24;2.10;;;1.08;;
21903;SDS011;11116;51.554;7.812;2022-08-21T14:01:52;5.78;;;1.25;;
21903;SDS011;11116;51.554;7.812;2022-08-21T14:04:25;2.45;;;1.15;;
21903;SDS011;11116;51.554;7.812;2022-08-21T14:06:57;2.58;;;0.90;;
21903;SDS011;11116;51.554;7.812;2022-08-21T14:09:26;2.70;;;0.88;;
21903;SDS011;11116;51.554;7.812;2022-08-21T14:11:57;1.50;;;0.98;;
21903;SDS011;11116;51.554;7.812;2022-08-21T14:14:28;1.63;;;0.82;;
21903;SDS011;11116;51.554;7.812;2022-08-21T14:16:58;4.32;;;1.13;;
21903;SDS011;11116;51.554;7.812;2022-08-21T14:19:27;2.15;;;1.05;;
21903;SDS011;11116;51.554;7.812;2022-08-21T14:22:12;3.92;;;1.63;;
21903;SDS011;11116;51.554;7.812;2022-08-21T14:24:48;2.95;;;1.10;;
21903;SDS011;11116;51.554;7.812;2022-08-21T14:27:17;3.25;;;1.02;;
21903;SDS011;11116;51.554;7.812;2022-08-21T14:29:44;4.97;;;1.30;;
21903;SDS011;11116;51.554;7.812;2022-08-21T14:32:13;2.47;;;1.20;;
21903;SDS011;11116;51.554;7.812;2022-08-21T14:34:42;1.80;;;0.90;;
21903;SDS011;11116;51.554;7.812;2022-08-21T14:37:09;1.73;;;0.80;;
21903;SDS011;11116;51.554;7.812;2022-08-21T14:39:36;3.08;;;0.65;;
21903;SDS011;11116;51.554;7.812;2022-08-21T14:42:03;2.03;;;1.05;;
21903;SDS011;11116;51.554;7.812;2022-08-21T14:44:32;1.55;;;0.85;;
21903;SDS011;11116;51.554;7.812;2022-08-21T14:47:00;2.65;;;1.08;;
21903;SDS011;11116;51.554;7.812;2022-08-21T14:49:27;2.15;;;1.05;;
21903;SDS011;11116;51.554;7.812;2022-08-21T14:51:55;1.02;;;0.90;;
21903;SDS011;11116;51.554;7.812;2022-08-21T14:54:23;3.20;;;1.10;;
21903;SDS011;11116;51.554;7.812;2022-08-21T14:56:50;3.30;;;1.10;;